createdAt,value
2024-02-10T00:00:28.807Z,98674.94
2024-02-10T00:02:59.957Z,98689.06
2024-02-10T00:05:36.916Z,98745.50
2024-02-10T00:08:04.642Z,98691.41
2024-02-10T00:10:32.188Z,98695.00
2024-02-10T00:13:01.651Z,98695.75
2024-02-10T00:15:29.458Z,98705.75
2024-02-10T00:17:57.415Z,98688.38
2024-02-10T00:20:27.640Z,98655.88
2024-02-10T00:22:55.644Z,98688.81
2024-02-10T00:25:26.257Z,98711.03
2024-02-10T00:27:59.958Z,98709.38
2024-02-10T00:30:31.201Z,98703.13
2024-02-10T00:33:03.318Z,98744.63
2024-02-10T00:35:40.482Z,98726.28
2024-02-10T00:38:07.717Z,98689.06
2024-02-10T00:40:35.264Z,98667.50
2024-02-10T00:43:05.908Z,98752.69
2024-02-10T00:45:33.458Z,98736.13
2024-02-10T00:48:01.853Z,98746.97
2024-02-10T00:50:29.287Z,98726.50
2024-02-10T00:52:56.676Z,98774.00
2024-02-10T00:55:27.174Z,98686.13
2024-02-10T00:57:54.668Z,98739.28
2024-02-10T01:00:23.526Z,98724.25
2024-02-10T01:02:52.382Z,98723.09
2024-02-10T01:05:20.149Z,98801.34
2024-02-10T01:07:49.296Z,98738.75
2024-02-10T01:10:17.320Z,98749.44
2024-02-10T01:12:45.049Z,98768.81
2024-02-10T01:15:14.787Z,98712.59
2024-02-10T01:17:48.208Z,98784.28
2024-02-10T01:20:18.661Z,98745.91
2024-02-10T01:22:46.841Z,98784.69
2024-02-10T01:25:14.567Z,98745.25
2024-02-10T01:27:45.070Z,98745.25
2024-02-10T01:30:14.410Z,98711.88
2024-02-10T01:32:44.040Z,98761.41
2024-02-10T01:35:12.325Z,98772.69
2024-02-10T01:37:42.579Z,98809.72
2024-02-10T01:40:12.791Z,98846.28
2024-02-10T01:42:43.071Z,98793.09
2024-02-10T01:45:15.297Z,98804.84
2024-02-10T01:47:47.199Z,98811.44
2024-02-10T01:50:16.020Z,98793.66
2024-02-10T01:52:49.724Z,98843.66
2024-02-10T01:55:24.566Z,98835.19
2024-02-10T01:58:04.427Z,98843.13
2024-02-10T02:03:47.749Z,98823.84
2024-02-10T02:15:45.338Z,98776.44
2024-02-10T02:21:37.133Z,98852.25
2024-02-10T02:24:19.129Z,98780.38
2024-02-10T02:58:45.276Z,98866.38
2024-02-10T03:03:54.495Z,98925.19
2024-02-10T03:06:22.409Z,98853.75
2024-02-10T03:08:49.837Z,98915.75
2024-02-10T03:11:20.914Z,98865.66
2024-02-10T03:13:49.170Z,98920.28
2024-02-10T03:16:23.956Z,98883.94
2024-02-10T03:18:51.366Z,98891.09
2024-02-10T03:21:19.385Z,98911.09
2024-02-10T03:23:46.904Z,98838.16
2024-02-10T03:26:14.946Z,98911.59
2024-02-10T03:28:42.518Z,98920.13
2024-02-10T03:31:11.188Z,98918.47
2024-02-10T03:33:38.661Z,98938.25
2024-02-10T03:36:06.589Z,98946.78
2024-02-10T03:38:33.950Z,98929.72
2024-02-10T03:41:01.470Z,98922.69
2024-02-10T03:43:29.146Z,98966.31
2024-02-10T03:45:56.516Z,98930.75
2024-02-10T03:48:33.805Z,98926.44
2024-02-10T03:51:01.291Z,98939.91
2024-02-10T03:53:28.872Z,98962.94
2024-02-10T03:55:58.264Z,98970.09
2024-02-10T03:58:27.184Z,98900.22
2024-02-10T04:00:55.321Z,98927.47
2024-02-10T04:08:12.312Z,98993.44
2024-02-10T04:13:34.338Z,98930.25
2024-02-10T04:16:04.124Z,98956.31
2024-02-10T04:21:18.078Z,98988.53
2024-02-10T04:23:53.737Z,98972.19
2024-02-10T04:26:31.636Z,99003.63
2024-02-10T04:34:33.215Z,99022.38
2024-02-10T04:37:01.611Z,99018.41
2024-02-10T04:39:30.811Z,98935.00
2024-02-10T04:41:59.503Z,98978.00
2024-02-10T04:44:32.817Z,99003.63
2024-02-10T04:49:45.301Z,98968.72
2024-02-10T05:00:30.850Z,99022.69
2024-02-10T05:05:46.901Z,99016.81
2024-02-10T05:08:15.012Z,99012.59
2024-02-10T05:16:12.640Z,99049.31
2024-02-10T05:27:04.300Z,99014.97
2024-02-10T05:29:46.562Z,99084.28
2024-02-10T05:32:16.862Z,98983.56
2024-02-10T05:34:47.815Z,99010.44
2024-02-10T05:37:20.963Z,99046.69
2024-02-10T05:45:14.854Z,99059.00
2024-02-10T06:03:58.141Z,99018.72
2024-02-10T06:06:29.313Z,99047.13
2024-02-10T06:09:03.093Z,99056.50
2024-02-10T06:14:20.993Z,99123.19
2024-02-10T06:16:56.178Z,99109.31
2024-02-10T06:19:26.667Z,99143.41
2024-02-10T06:21:54.392Z,99068.19
2024-02-10T06:24:31.452Z,99100.91
2024-02-10T06:29:40.057Z,99135.13
2024-02-10T06:32:07.674Z,99080.75
2024-02-10T06:34:36.844Z,99124.88
2024-02-10T06:37:09.397Z,99059.50
2024-02-10T06:39:40.147Z,99100.00
2024-02-10T06:42:10.860Z,99101.69
2024-02-10T06:44:44.392Z,99122.06
2024-02-10T06:47:16.719Z,99158.81
2024-02-10T06:49:49.599Z,99119.50
2024-02-10T06:52:17.573Z,99105.50
2024-02-10T06:54:46.780Z,99179.13
2024-02-10T06:57:27.238Z,99172.22
2024-02-10T06:59:58.381Z,99118.06
2024-02-10T07:02:31.330Z,99094.13
2024-02-10T07:04:59.964Z,99176.88
2024-02-10T07:07:28.292Z,99183.44
2024-02-10T07:10:00.970Z,99187.03
2024-02-10T07:12:35.098Z,99209.88
2024-02-10T07:15:02.981Z,99192.03
2024-02-10T07:17:37.371Z,99214.41
2024-02-10T07:20:06.047Z,99219.47
2024-02-10T07:22:35.990Z,99190.56
2024-02-10T07:25:15.351Z,99224.50
2024-02-10T07:27:46.588Z,99219.56
2024-02-10T07:30:15.855Z,99153.72
2024-02-10T07:32:50.339Z,99212.28
2024-02-10T07:35:20.061Z,99202.47
2024-02-10T07:37:50.421Z,99213.63
2024-02-10T07:40:19.461Z,99221.34
2024-02-10T07:42:47.914Z,99235.69
2024-02-10T07:45:19.176Z,99276.41
2024-02-10T07:47:48.437Z,99181.59
2024-02-10T07:50:15.906Z,99218.63
2024-02-10T07:52:46.764Z,99206.31
2024-02-10T07:55:40.634Z,99240.44
2024-02-10T07:58:11.296Z,99263.56
2024-02-10T08:00:43.236Z,99246.06
2024-02-10T08:03:14.633Z,99253.13
2024-02-10T08:05:43.945Z,99253.22
2024-02-10T08:08:12.112Z,99285.78
2024-02-10T08:10:40.120Z,99285.75
2024-02-10T08:13:07.935Z,99280.41
2024-02-10T08:15:35.611Z,99268.47
2024-02-10T08:18:07.300Z,99290.69
2024-02-10T08:20:36.036Z,99216.88
2024-02-10T08:23:04.130Z,99260.53
2024-02-10T08:25:33.052Z,99274.75
2024-02-10T08:28:02.594Z,99238.47
2024-02-10T08:30:30.742Z,99200.06
2024-02-10T08:33:03.160Z,99236.50
2024-02-10T08:35:32.356Z,99299.84
2024-02-10T08:37:59.947Z,99288.56
2024-02-10T08:40:27.284Z,99266.50
2024-02-10T08:42:55.561Z,99252.13
2024-02-10T08:45:23.124Z,99289.31
2024-02-10T08:47:51.139Z,99290.22
2024-02-10T08:50:19.934Z,99325.38
2024-02-10T08:52:53.077Z,99293.53
2024-02-10T08:55:21.657Z,99245.41
2024-02-10T08:57:52.563Z,99221.63
2024-02-10T09:00:23.341Z,99255.66
2024-02-10T09:02:52.384Z,99298.94
2024-02-10T09:05:20.046Z,99240.97
2024-02-10T09:43:42.133Z,99214.38
2024-02-10T09:46:13.616Z,99284.00
2024-02-10T09:48:55.041Z,99233.03
2024-02-10T09:51:30.951Z,99255.56
2024-02-10T09:54:01.598Z,99296.84
2024-02-10T09:56:36.528Z,99309.66
2024-02-10T09:59:08.673Z,99305.97
2024-02-10T10:01:39.306Z,99307.88
2024-02-10T10:04:13.744Z,99315.88
2024-02-10T10:06:48.922Z,99230.41
2024-02-10T10:09:20.185Z,99227.78
2024-02-10T10:11:52.327Z,99235.34
2024-02-10T10:14:22.347Z,99292.78
2024-02-10T10:17:02.040Z,99282.81
2024-02-10T10:19:32.068Z,99250.47
2024-02-10T10:22:04.628Z,99310.50
2024-02-10T10:24:59.984Z,99328.56
2024-02-10T10:27:27.656Z,99252.16
2024-02-10T10:29:58.856Z,99306.22
2024-02-10T10:32:33.011Z,99317.16
2024-02-10T10:35:02.952Z,99282.91
2024-02-10T10:37:32.773Z,99292.59
2024-02-10T10:40:13.086Z,99300.25
2024-02-10T10:42:44.124Z,99300.09
2024-02-10T10:45:16.941Z,99376.22
2024-02-10T10:47:47.264Z,99311.88
2024-02-10T10:50:17.895Z,99316.16
2024-02-10T10:52:49.136Z,99357.97
2024-02-10T10:55:19.625Z,99331.81
2024-02-10T10:57:51.591Z,99314.31
2024-02-10T11:00:22.502Z,99333.13
2024-02-10T11:03:00.751Z,99331.38
2024-02-10T11:05:28.417Z,99349.75
2024-02-10T11:08:03.309Z,99365.63
2024-02-10T11:31:00.943Z,99288.84
2024-02-10T11:36:32.334Z,99405.66
2024-02-10T11:39:01.206Z,99393.44
2024-02-10T11:41:33.483Z,99376.81
2024-02-10T11:44:14.517Z,99393.38
2024-02-10T11:46:50.117Z,99383.22
2024-02-10T11:49:27.669Z,99361.84
2024-02-10T11:52:05.377Z,99315.16
2024-02-10T11:54:53.547Z,99396.66
2024-02-10T11:57:25.106Z,99342.81
2024-02-10T11:59:57.645Z,99357.06
2024-02-10T12:02:34.024Z,99351.31
2024-02-10T12:05:06.197Z,99411.63
2024-02-10T12:07:48.448Z,99431.59
2024-02-10T12:10:21.716Z,99447.78
2024-02-10T12:13:06.109Z,99429.75
2024-02-10T13:05:02.689Z,99388.44
2024-02-10T13:20:52.143Z,99371.94
2024-02-10T13:23:20.957Z,99427.97
2024-02-10T13:25:53.421Z,99443.50
2024-02-10T13:28:26.174Z,99462.91
2024-02-10T13:30:54.635Z,99439.09
2024-02-10T13:33:25.346Z,99414.72
2024-02-10T13:35:56.268Z,99466.69
2024-02-10T13:38:45.275Z,99477.75
2024-02-10T13:41:31.176Z,99450.13
2024-02-10T13:44:17.271Z,99423.69
2024-02-10T13:47:10.006Z,99434.03
2024-02-10T13:50:00.866Z,99497.19
2024-02-10T13:52:54.455Z,99348.38
2024-02-10T13:55:55.545Z,99434.84
2024-02-10T14:01:54.916Z,99427.97
2024-02-10T14:04:41.375Z,99404.44
2024-02-10T14:07:36.218Z,99454.50
2024-02-10T14:10:12.754Z,99421.19
2024-02-10T14:12:51.821Z,99453.41
2024-02-10T14:15:28.801Z,99463.75
2024-02-10T14:18:02.611Z,99459.56
2024-02-10T14:20:39.325Z,99461.97
2024-02-10T14:23:13.604Z,99455.56
2024-02-10T14:25:48.185Z,99438.72
2024-02-10T14:31:17.848Z,99409.13
2024-02-10T14:34:03.196Z,99426.63
2024-02-10T14:36:39.261Z,99423.31
2024-02-10T14:39:10.857Z,99468.38
2024-02-10T14:41:53.095Z,99460.03
2024-02-10T14:47:58.629Z,99515.81
2024-02-10T14:50:30.682Z,99439.66
2024-02-10T14:58:40.773Z,99475.03
2024-02-10T15:07:00.342Z,99432.59
2024-02-10T15:12:28.747Z,99440.41
2024-02-10T15:15:06.281Z,99463.72
2024-02-10T15:18:04.278Z,99521.41
2024-02-10T15:20:51.076Z,99434.97
2024-02-10T15:23:19.517Z,99432.38
2024-02-10T15:25:49.509Z,99481.63
2024-02-10T15:28:36.106Z,99520.88
2024-02-10T15:31:29.876Z,99454.88
2024-02-10T15:34:07.841Z,99515.34
2024-02-10T15:37:00.764Z,99445.78
2024-02-10T15:39:38.666Z,99439.28
2024-02-10T15:42:33.222Z,99538.03
2024-02-10T15:45:38.618Z,99489.84
2024-02-10T15:48:18.846Z,99479.56
2024-02-10T15:50:47.379Z,99476.66
2024-02-10T15:53:54.678Z,99452.91
2024-02-10T15:56:29.501Z,99459.94
2024-02-10T15:59:08.041Z,99591.84
2024-02-10T16:01:44.416Z,99518.91
2024-02-10T16:04:15.276Z,99533.28
2024-02-10T16:06:48.403Z,99484.84
2024-02-10T16:09:18.791Z,99543.47
2024-02-10T16:11:52.304Z,99516.22
2024-02-10T16:14:29.438Z,99533.31
2024-02-10T16:17:02.398Z,99580.81
2024-02-10T16:19:30.974Z,99506.38
2024-02-10T16:22:00.884Z,99520.13
2024-02-10T16:24:31.164Z,99606.59
2024-02-10T16:27:02.082Z,99528.06
2024-02-10T16:29:29.516Z,99588.63
2024-02-10T16:31:59.943Z,99579.34
2024-02-10T16:34:30.160Z,99560.59
2024-02-10T16:37:00.062Z,99569.25
2024-02-10T16:39:27.415Z,99572.72
2024-02-10T16:41:58.866Z,99577.97
2024-02-10T16:44:29.252Z,99568.59
2024-02-10T16:47:01.159Z,99601.84
2024-02-10T16:49:52.000Z,99537.97
2024-02-10T16:52:25.297Z,99513.78
2024-02-10T16:54:56.799Z,99532.34
2024-02-10T16:57:49.185Z,99547.78
2024-02-10T17:00:28.312Z,99557.78
2024-02-10T17:03:02.655Z,99582.34
2024-02-10T17:05:34.937Z,99566.53
2024-02-10T17:08:04.075Z,99562.16
2024-02-10T17:10:36.466Z,99576.09
2024-02-10T17:13:08.471Z,99600.06
2024-02-10T17:15:44.392Z,99577.00
2024-02-10T17:18:15.794Z,99622.81
2024-02-10T17:21:02.373Z,99513.16
2024-02-10T17:23:35.372Z,99625.59
2024-02-10T17:26:08.532Z,99569.69
2024-02-10T17:28:38.937Z,99596.78
2024-02-10T17:31:15.652Z,99618.94
2024-02-10T17:33:45.858Z,99574.09
2024-02-10T17:36:23.456Z,99561.88
2024-02-10T17:39:03.932Z,99617.75
2024-02-10T17:41:33.603Z,99602.47
2024-02-10T17:44:01.898Z,99615.22
2024-02-10T17:46:31.693Z,99621.19
2024-02-10T17:49:02.209Z,99566.88
2024-02-10T17:51:30.679Z,99579.91
2024-02-10T17:54:09.881Z,99574.91
2024-02-10T17:56:38.381Z,99552.81
2024-02-10T17:59:06.438Z,99621.44
2024-02-10T18:01:34.338Z,99583.34
2024-02-10T18:04:02.306Z,99627.47
2024-02-10T18:06:32.323Z,99630.19
2024-02-10T18:09:05.062Z,99520.50
2024-02-10T18:15:06.561Z,99594.25
2024-02-10T18:17:34.084Z,99533.13
2024-02-10T18:20:03.283Z,99609.59
2024-02-10T18:22:34.465Z,99570.69
2024-02-10T18:25:05.356Z,99611.78
2024-02-10T18:27:34.002Z,99624.31
2024-02-10T18:30:04.904Z,99612.56
2024-02-10T18:32:34.034Z,99614.19
2024-02-10T18:35:03.151Z,99610.00
2024-02-10T18:37:52.230Z,99611.56
2024-02-10T18:40:20.490Z,99582.63
2024-02-10T18:42:49.151Z,99548.69
2024-02-10T18:45:45.791Z,99514.69
2024-02-10T18:48:21.679Z,99505.50
2024-02-10T18:50:55.004Z,99546.03
2024-02-10T18:53:22.900Z,99570.97
2024-02-10T18:55:51.743Z,99605.91
2024-02-10T18:58:19.327Z,99597.41
2024-02-10T19:00:50.712Z,99621.75
2024-02-10T19:03:18.324Z,99626.78
2024-02-10T19:05:48.230Z,99604.53
2024-02-10T19:08:16.811Z,99624.91
2024-02-10T19:10:45.453Z,99605.59
2024-02-10T19:13:16.674Z,99573.75
2024-02-10T19:15:44.307Z,99567.31
2024-02-10T19:18:15.700Z,99637.75
2024-02-10T19:20:48.561Z,99589.31
2024-02-10T19:23:16.491Z,99612.09
2024-02-10T19:25:53.249Z,99600.13
2024-02-10T19:28:20.739Z,99568.72
2024-02-10T19:30:50.937Z,99590.84
2024-02-10T19:33:20.852Z,99561.56
2024-02-10T19:35:57.845Z,99546.75
2024-02-10T19:38:30.343Z,99526.78
2024-02-10T19:41:04.247Z,99575.03
2024-02-10T19:43:32.039Z,99557.19
2024-02-10T19:46:01.786Z,99517.75
2024-02-10T19:48:32.789Z,99555.22
2024-02-10T19:51:07.705Z,99557.63
2024-02-10T19:53:36.693Z,99549.06
2024-02-10T19:56:05.852Z,99568.66
2024-02-10T19:58:35.863Z,99616.41
2024-02-10T20:01:04.566Z,99612.28
2024-02-10T20:03:32.509Z,99551.91
2024-02-10T20:06:06.511Z,99552.75
2024-02-10T20:08:36.749Z,99568.25
2024-02-10T20:11:05.401Z,99594.66
2024-02-10T20:13:32.891Z,99565.56
2024-02-10T20:18:49.254Z,99582.78
2024-02-10T20:21:17.821Z,99570.91
2024-02-10T20:23:45.978Z,99622.69
2024-02-10T20:26:14.544Z,99596.16
2024-02-10T20:28:43.477Z,99587.97
2024-02-10T20:31:18.441Z,99581.84
2024-02-10T20:33:53.846Z,99566.47
2024-02-10T20:36:28.552Z,99577.53
2024-02-10T20:38:58.029Z,99558.88
2024-02-10T20:41:25.611Z,99611.25
2024-02-10T20:43:52.930Z,99656.34
2024-02-10T20:46:24.948Z,99604.50
2024-02-10T20:48:54.087Z,99566.38
2024-02-10T20:51:21.333Z,99633.22
2024-02-10T20:53:48.882Z,99596.75
2024-02-10T20:56:16.943Z,99597.50
2024-02-10T20:58:45.450Z,99653.19
2024-02-10T21:01:12.946Z,99641.19
2024-02-10T21:03:40.672Z,99572.41
2024-02-10T21:06:08.578Z,99673.50
2024-02-10T21:08:39.006Z,99657.41
2024-02-10T21:11:07.304Z,99670.88
2024-02-10T21:13:35.048Z,99620.31
2024-02-10T21:16:04.462Z,99615.94
2024-02-10T21:18:34.427Z,99622.84
2024-02-10T21:21:02.069Z,99653.34
2024-02-10T21:23:32.044Z,99603.25
2024-02-10T21:25:59.457Z,99674.78
2024-02-10T21:28:28.628Z,99679.78
2024-02-10T21:31:06.316Z,99562.38
2024-02-10T21:33:34.847Z,99678.78
2024-02-10T21:36:03.757Z,99635.53
2024-02-10T21:38:31.226Z,99663.50
2024-02-10T21:40:58.685Z,99657.69
2024-02-10T21:43:26.546Z,99658.44
2024-02-10T21:45:56.223Z,99622.16
2024-02-10T21:48:23.822Z,99679.81
2024-02-10T21:50:51.149Z,99681.28
2024-02-10T21:53:18.981Z,99704.53
2024-02-10T21:55:46.983Z,99648.56
2024-02-10T21:58:15.490Z,99623.22
2024-02-10T22:00:42.916Z,99701.25
2024-02-10T22:03:12.833Z,99660.28
2024-02-10T22:05:42.502Z,99705.66
2024-02-10T22:08:10.000Z,99695.50
2024-02-10T22:10:38.508Z,99660.50
2024-02-10T22:13:08.079Z,99711.72
2024-02-10T22:15:43.975Z,99686.72
2024-02-10T22:18:14.959Z,99683.34
2024-02-10T22:20:43.349Z,99724.72
